sensor_id;sensor_type;location;lat;lon;timestamp;P1;durP1;ratioP1;P2;durP2;ratioP2
43990;SDS011;29654;50.784;20.604;2023-04-16T00:02:38;6.38;;;4.38;;
43990;SDS011;29654;50.784;20.604;2023-04-16T00:07:40;5.70;;;4.55;;
43990;SDS011;29654;50.784;20.604;2023-04-16T00:12:43;4.97;;;4.00;;
43990;SDS011;29654;50.784;20.604;2023-04-16T00:17:47;7.07;;;5.00;;
43990;SDS011;29654;50.784;20.604;2023-04-16T00:22:50;5.50;;;4.70;;
43990;SDS011;29654;50.784;20.604;2023-04-16T00:27:52;5.63;;;5.13;;
43990;SDS011;29654;50.784;20.604;2023-04-16T00:32:57;6.03;;;4.68;;
43990;SDS011;29654;50.784;20.604;2023-04-16T00:37:59;5.90;;;4.88;;
43990;SDS011;29654;50.784;20.604;2023-04-16T00:43:02;5.90;;;5.03;;
43990;SDS011;29654;50.784;20.604;2023-04-16T00:48:06;5.38;;;4.88;;
43990;SDS011;29654;50.784;20.604;2023-04-16T00:53:09;5.65;;;5.13;;
43990;SDS011;29654;50.784;20.604;2023-04-16T00:58:11;6.03;;;5.22;;
43990;SDS011;29654;50.784;20.604;2023-04-16T01:03:16;5.85;;;5.28;;
43990;SDS011;29654;50.784;20.604;2023-04-16T01:08:19;6.40;;;5.57;;
43990;SDS011;29654;50.784;20.604;2023-04-16T01:13:22;6.50;;;5.90;;
43990;SDS011;29654;50.784;20.604;2023-04-16T01:18:26;9.10;;;6.30;;
43990;SDS011;29654;50.784;20.604;2023-04-16T01:23:30;6.53;;;5.85;;
43990;SDS011;29654;50.784;20.604;2023-04-16T01:28:33;7.20;;;6.10;;
43990;SDS011;29654;50.784;20.604;2023-04-16T01:33:35;9.25;;;7.75;;
43990;SDS011;29654;50.784;20.604;2023-04-16T01:38:41;9.00;;;7.38;;
43990;SDS011;29654;50.784;20.604;2023-04-16T01:43:44;8.43;;;7.15;;
43990;SDS011;29654;50.784;20.604;2023-04-16T01:48:46;9.57;;;7.78;;
43990;SDS011;29654;50.784;20.604;2023-04-16T01:53:51;9.32;;;7.85;;
43990;SDS011;29654;50.784;20.604;2023-04-16T01:58:53;7.00;;;6.18;;
43990;SDS011;29654;50.784;20.604;2023-04-16T02:03:57;5.53;;;5.03;;
43990;SDS011;29654;50.784;20.604;2023-04-16T02:09:01;5.85;;;5.13;;
43990;SDS011;29654;50.784;20.604;2023-04-16T02:14:05;7.05;;;5.75;;
43990;SDS011;29654;50.784;20.604;2023-04-16T02:19:09;7.25;;;6.45;;
43990;SDS011;29654;50.784;20.604;2023-04-16T02:24:15;7.88;;;5.90;;
43990;SDS011;29654;50.784;20.604;2023-04-16T02:29:18;7.05;;;6.35;;
43990;SDS011;29654;50.784;20.604;2023-04-16T02:34:28;9.02;;;6.97;;
43990;SDS011;29654;50.784;20.604;2023-04-16T02:39:34;7.28;;;6.43;;
43990;SDS011;29654;50.784;20.604;2023-04-16T02:44:37;9.40;;;7.78;;
43990;SDS011;29654;50.784;20.604;2023-04-16T02:49:40;6.32;;;5.47;;
43990;SDS011;29654;50.784;20.604;2023-04-16T02:54:44;7.68;;;6.88;;
43990;SDS011;29654;50.784;20.604;2023-04-16T02:59:46;7.78;;;7.00;;
43990;SDS011;29654;50.784;20.604;2023-04-16T03:04:49;7.18;;;6.47;;
43990;SDS011;29654;50.784;20.604;2023-04-16T03:09:53;9.20;;;7.38;;
43990;SDS011;29654;50.784;20.604;2023-04-16T03:14:56;7.47;;;6.38;;
43990;SDS011;29654;50.784;20.604;2023-04-16T03:19:58;7.88;;;7.03;;
43990;SDS011;29654;50.784;20.604;2023-04-16T03:25:03;7.93;;;7.10;;
43990;SDS011;29654;50.784;20.604;2023-04-16T03:30:06;6.68;;;5.55;;
43990;SDS011;29654;50.784;20.604;2023-04-16T03:35:11;7.32;;;6.30;;
43990;SDS011;29654;50.784;20.604;2023-04-16T03:40:17;7.68;;;6.40;;
43990;SDS011;29654;50.784;20.604;2023-04-16T03:45:21;7.20;;;6.32;;
43990;SDS011;29654;50.784;20.604;2023-04-16T03:50:26;7.47;;;6.75;;
43990;SDS011;29654;50.784;20.604;2023-04-16T03:55:30;8.10;;;7.30;;
43990;SDS011;29654;50.784;20.604;2023-04-16T04:00:32;8.25;;;7.43;;
43990;SDS011;29654;50.784;20.604;2023-04-16T04:05:42;8.35;;;6.95;;
43990;SDS011;29654;50.784;20.604;2023-04-16T04:10:49;8.70;;;7.65;;
43990;SDS011;29654;50.784;20.604;2023-04-16T04:15:52;10.88;;;7.65;;
43990;SDS011;29654;50.784;20.604;2023-04-16T04:20:56;10.50;;;7.88;;
43990;SDS011;29654;50.784;20.604;2023-04-16T04:26:04;10.68;;;8.73;;
43990;SDS011;29654;50.784;20.604;2023-04-16T04:31:07;9.07;;;7.50;;
43990;SDS011;29654;50.784;20.604;2023-04-16T04:36:09;11.23;;;8.60;;
43990;SDS011;29654;50.784;20.604;2023-04-16T04:41:13;9.82;;;8.52;;
43990;SDS011;29654;50.784;20.604;2023-04-16T04:46:16;11.38;;;10.15;;
43990;SDS011;29654;50.784;20.604;2023-04-16T04:51:19;12.85;;;10.77;;
43990;SDS011;29654;50.784;20.604;2023-04-16T04:56:23;9.27;;;8.38;;
43990;SDS011;29654;50.784;20.604;2023-04-16T05:01:26;10.35;;;8.73;;
43990;SDS011;29654;50.784;20.604;2023-04-16T05:06:28;9.52;;;8.32;;
43990;SDS011;29654;50.784;20.604;2023-04-16T05:11:33;8.88;;;7.78;;
43990;SDS011;29654;50.784;20.604;2023-04-16T05:16:36;10.93;;;9.15;;
43990;SDS011;29654;50.784;20.604;2023-04-16T05:21:38;11.95;;;9.68;;
43990;SDS011;29654;50.784;20.604;2023-04-16T05:26:42;10.23;;;8.50;;
43990;SDS011;29654;50.784;20.604;2023-04-16T05:31:45;8.27;;;7.47;;
43990;SDS011;29654;50.784;20.604;2023-04-16T05:36:47;9.55;;;7.55;;
43990;SDS011;29654;50.784;20.604;2023-04-16T05:41:51;8.25;;;7.45;;
43990;SDS011;29654;50.784;20.604;2023-04-16T05:46:54;8.30;;;7.43;;
43990;SDS011;29654;50.784;20.604;2023-04-16T05:51:56;8.43;;;7.57;;
43990;SDS011;29654;50.784;20.604;2023-04-16T05:57:00;8.57;;;7.68;;
43990;SDS011;29654;50.784;20.604;2023-04-16T06:02:03;9.52;;;8.05;;
43990;SDS011;29654;50.784;20.604;2023-04-16T06:07:07;8.30;;;7.50;;
43990;SDS011;29654;50.784;20.604;2023-04-16T06:12:11;9.45;;;8.55;;
43990;SDS011;29654;50.784;20.604;2023-04-16T06:17:13;9.57;;;8.52;;
43990;SDS011;29654;50.784;20.604;2023-04-16T06:22:16;10.55;;;9.10;;
43990;SDS011;29654;50.784;20.604;2023-04-16T06:27:20;10.20;;;9.18;;
43990;SDS011;29654;50.784;20.604;2023-04-16T06:32:23;10.73;;;9.65;;
43990;SDS011;29654;50.784;20.604;2023-04-16T06:37:25;9.98;;;8.98;;
43990;SDS011;29654;50.784;20.604;2023-04-16T06:42:29;9.43;;;8.52;;
43990;SDS011;29654;50.784;20.604;2023-04-16T06:47:32;9.65;;;8.75;;
43990;SDS011;29654;50.784;20.604;2023-04-16T06:52:35;9.63;;;8.77;;
43990;SDS011;29654;50.784;20.604;2023-04-16T06:57:39;9.38;;;8.48;;
43990;SDS011;29654;50.784;20.604;2023-04-16T07:02:41;10.10;;;8.77;;
43990;SDS011;29654;50.784;20.604;2023-04-16T07:07:44;10.10;;;9.05;;
43990;SDS011;29654;50.784;20.604;2023-04-16T07:12:48;9.75;;;8.85;;
43990;SDS011;29654;50.784;20.604;2023-04-16T07:17:51;8.82;;;8.02;;
43990;SDS011;29654;50.784;20.604;2023-04-16T07:22:53;10.27;;;9.23;;
43990;SDS011;29654;50.784;20.604;2023-04-16T07:27:58;9.48;;;8.57;;
43990;SDS011;29654;50.784;20.604;2023-04-16T07:33:01;9.85;;;8.95;;
43990;SDS011;29654;50.784;20.604;2023-04-16T07:38:04;9.20;;;8.40;;
43990;SDS011;29654;50.784;20.604;2023-04-16T07:43:08;9.88;;;8.90;;
43990;SDS011;29654;50.784;20.604;2023-04-16T07:48:11;9.90;;;9.00;;
43990;SDS011;29654;50.784;20.604;2023-04-16T07:53:13;11.02;;;10.02;;
43990;SDS011;29654;50.784;20.604;2023-04-16T07:58:17;9.45;;;8.45;;
43990;SDS011;29654;50.784;20.604;2023-04-16T08:03:20;10.50;;;9.40;;
43990;SDS011;29654;50.784;20.604;2023-04-16T08:08:23;10.55;;;9.52;;
43990;SDS011;29654;50.784;20.604;2023-04-16T08:13:27;11.57;;;10.48;;
43990;SDS011;29654;50.784;20.604;2023-04-16T08:18:29;10.82;;;9.82;;
43990;SDS011;29654;50.784;20.604;2023-04-16T08:23:32;11.48;;;10.38;;
43990;SDS011;29654;50.784;20.604;2023-04-16T08:28:36;11.35;;;10.25;;
43990;SDS011;29654;50.784;20.604;2023-04-16T08:33:39;11.20;;;10.10;;
43990;SDS011;29654;50.784;20.604;2023-04-16T08:38:41;10.23;;;9.25;;
43990;SDS011;29654;50.784;20.604;2023-04-16T08:43:46;10.32;;;9.38;;
43990;SDS011;29654;50.784;20.604;2023-04-16T08:48:51;12.18;;;11.05;;
43990;SDS011;29654;50.784;20.604;2023-04-16T08:53:58;11.75;;;10.65;;
43990;SDS011;29654;50.784;20.604;2023-04-16T08:59:06;11.98;;;10.85;;
43990;SDS011;29654;50.784;20.604;2023-04-16T09:04:10;12.85;;;11.55;;
43990;SDS011;29654;50.784;20.604;2023-04-16T09:09:14;14.48;;;12.45;;
43990;SDS011;29654;50.784;20.604;2023-04-16T09:14:20;14.93;;;12.95;;
43990;SDS011;29654;50.784;20.604;2023-04-16T09:19:22;17.80;;;15.35;;
43990;SDS011;29654;50.784;20.604;2023-04-16T09:24:25;18.02;;;12.93;;
43990;SDS011;29654;50.784;20.604;2023-04-16T09:29:35;17.27;;;13.13;;
43990;SDS011;29654;50.784;20.604;2023-04-16T09:34:53;12.90;;;11.52;;
43990;SDS011;29654;50.784;20.604;2023-04-16T09:40:00;15.10;;;12.50;;
43990;SDS011;29654;50.784;20.604;2023-04-16T09:45:06;14.18;;;11.80;;
43990;SDS011;29654;50.784;20.604;2023-04-16T09:50:09;14.32;;;12.48;;
43990;SDS011;29654;50.784;20.604;2023-04-16T09:55:21;15.85;;;13.40;;
43990;SDS011;29654;50.784;20.604;2023-04-16T10:00:25;17.40;;;13.70;;
43990;SDS011;29654;50.784;20.604;2023-04-16T10:05:30;18.80;;;14.38;;
43990;SDS011;29654;50.784;20.604;2023-04-16T10:10:33;15.15;;;13.30;;
43990;SDS011;29654;50.784;20.604;2023-04-16T10:15:37;14.13;;;12.70;;
43990;SDS011;29654;50.784;20.604;2023-04-16T10:20:40;14.82;;;13.10;;
43990;SDS011;29654;50.784;20.604;2023-04-16T10:25:43;13.43;;;12.02;;
43990;SDS011;29654;50.784;20.604;2023-04-16T10:30:48;15.18;;;12.90;;
43990;SDS011;29654;50.784;20.604;2023-04-16T10:36:08;14.18;;;12.68;;
43990;SDS011;29654;50.784;20.604;2023-04-16T10:41:12;16.05;;;13.27;;
43990;SDS011;29654;50.784;20.604;2023-04-16T10:46:20;15.40;;;13.13;;
43990;SDS011;29654;50.784;20.604;2023-04-16T10:51:28;14.45;;;12.82;;
43990;SDS011;29654;50.784;20.604;2023-04-16T10:56:32;13.75;;;12.20;;
43990;SDS011;29654;50.784;20.604;2023-04-16T11:01:40;14.55;;;11.75;;
43990;SDS011;29654;50.784;20.604;2023-04-16T11:06:46;12.60;;;10.90;;
43990;SDS011;29654;50.784;20.604;2023-04-16T11:12:07;15.30;;;13.60;;
43990;SDS011;29654;50.784;20.604;2023-04-16T11:17:17;13.10;;;10.95;;
43990;SDS011;29654;50.784;20.604;2023-04-16T11:22:20;13.80;;;11.32;;
43990;SDS011;29654;50.784;20.604;2023-04-16T11:27:23;11.85;;;10.60;;
43990;SDS011;29654;50.784;20.604;2023-04-16T11:32:28;12.18;;;10.70;;
43990;SDS011;29654;50.784;20.604;2023-04-16T11:37:32;12.13;;;10.52;;
43990;SDS011;29654;50.784;20.604;2023-04-16T11:42:37;11.05;;;9.65;;
43990;SDS011;29654;50.784;20.604;2023-04-16T11:47:46;11.48;;;9.75;;
43990;SDS011;29654;50.784;20.604;2023-04-16T11:52:51;11.38;;;9.98;;
43990;SDS011;29654;50.784;20.604;2023-04-16T11:57:56;10.30;;;9.23;;
43990;SDS011;29654;50.784;20.604;2023-04-16T12:03:01;10.95;;;9.48;;
43990;SDS011;29654;50.784;20.604;2023-04-16T12:08:04;10.27;;;9.15;;
43990;SDS011;29654;50.784;20.604;2023-04-16T12:13:09;11.63;;;10.43;;
43990;SDS011;29654;50.784;20.604;2023-04-16T12:18:14;11.75;;;10.55;;
43990;SDS011;29654;50.784;20.604;2023-04-16T12:23:23;9.68;;;8.70;;
43990;SDS011;29654;50.784;20.604;2023-04-16T12:28:28;9.35;;;8.45;;
43990;SDS011;29654;50.784;20.604;2023-04-16T12:33:34;9.02;;;8.15;;
43990;SDS011;29654;50.784;20.604;2023-04-16T12:38:36;7.65;;;6.95;;
43990;SDS011;29654;50.784;20.604;2023-04-16T12:43:39;7.50;;;6.80;;
43990;SDS011;29654;50.784;20.604;2023-04-16T12:48:43;6.88;;;6.28;;
43990;SDS011;29654;50.784;20.604;2023-04-16T12:53:46;6.95;;;6.30;;
43990;SDS011;29654;50.784;20.604;2023-04-16T12:58:49;6.20;;;5.70;;
43990;SDS011;29654;50.784;20.604;2023-04-16T13:03:53;5.40;;;5.00;;
43990;SDS011;29654;50.784;20.604;2023-04-16T13:08:56;6.15;;;5.63;;
43990;SDS011;29654;50.784;20.604;2023-04-16T13:13:58;4.68;;;4.28;;
43990;SDS011;29654;50.784;20.604;2023-04-16T13:19:02;4.82;;;4.43;;
43990;SDS011;29654;50.784;20.604;2023-04-16T13:24:05;5.45;;;4.95;;
43990;SDS011;29654;50.784;20.604;2023-04-16T13:29:08;5.10;;;4.60;;
43990;SDS011;29654;50.784;20.604;2023-04-16T13:34:12;4.65;;;4.25;;
43990;SDS011;29654;50.784;20.604;2023-04-16T13:39:14;4.50;;;3.97;;
43990;SDS011;29654;50.784;20.604;2023-04-16T13:44:17;5.20;;;4.70;;
43990;SDS011;29654;50.784;20.604;2023-04-16T13:49:21;4.43;;;4.03;;
43990;SDS011;29654;50.784;20.604;2023-04-16T13:54:23;4.72;;;4.15;;
43990;SDS011;29654;50.784;20.604;2023-04-16T13:59:26;4.68;;;4.18;;
43990;SDS011;29654;50.784;20.604;2023-04-16T14:04:30;4.88;;;4.45;;
43990;SDS011;29654;50.784;20.604;2023-04-16T14:09:33;4.18;;;3.72;;
43990;SDS011;29654;50.784;20.604;2023-04-16T14:14:35;4.18;;;3.78;;
43990;SDS011;29654;50.784;20.604;2023-04-16T14:19:39;4.57;;;4.18;;
43990;SDS011;29654;50.784;20.604;2023-04-16T14:24:42;4.22;;;3.85;;
43990;SDS011;29654;50.784;20.604;2023-04-16T14:29:45;3.58;;;3.28;;
43990;SDS011;29654;50.784;20.604;2023-04-16T14:34:49;3.55;;;3.08;;
43990;SDS011;29654;50.784;20.604;2023-04-16T14:39:51;3.40;;;3.10;;
43990;SDS011;29654;50.784;20.604;2023-04-16T14:44:54;3.45;;;3.15;;
43990;SDS011;29654;50.784;20.604;2023-04-16T14:49:58;3.13;;;2.90;;
43990;SDS011;29654;50.784;20.604;2023-04-16T14:55:01;3.25;;;2.95;;
43990;SDS011;29654;50.784;20.604;2023-04-16T15:00:05;2.60;;;2.40;;
43990;SDS011;29654;50.784;20.604;2023-04-16T15:05:11;2.95;;;2.72;;
43990;SDS011;29654;50.784;20.604;2023-04-16T15:10:13;3.17;;;2.72;;
43990;SDS011;29654;50.784;20.604;2023-04-16T15:15:16;3.45;;;2.90;;
43990;SDS011;29654;50.784;20.604;2023-04-16T15:20:20;4.18;;;3.08;;
43990;SDS011;29654;50.784;20.604;2023-04-16T15:25:23;3.50;;;3.20;;
43990;SDS011;29654;50.784;20.604;2023-04-16T15:30:26;3.47;;;3.17;;
43990;SDS011;29654;50.784;20.604;2023-04-16T15:35:30;4.68;;;4.30;;
43990;SDS011;29654;50.784;20.604;2023-04-16T15:40:33;4.10;;;3.80;;
43990;SDS011;29654;50.784;20.604;2023-04-16T15:45:36;3.90;;;3.60;;
43990;SDS011;29654;50.784;20.604;2023-04-16T15:50:40;4.10;;;3.70;;
43990;SDS011;29654;50.784;20.604;2023-04-16T15:55:42;4.43;;;4.03;;
43990;SDS011;29654;50.784;20.604;2023-04-16T16:00:45;3.67;;;3.38;;
43990;SDS011;29654;50.784;20.604;2023-04-16T16:05:50;3.60;;;3.30;;
43990;SDS011;29654;50.784;20.604;2023-04-16T16:10:53;3.58;;;3.28;;
43990;SDS011;29654;50.784;20.604;2023-04-16T16:15:56;3.97;;;3.67;;
43990;SDS011;29654;50.784;20.604;2023-04-16T16:21:00;3.35;;;3.05;;
43990;SDS011;29654;50.784;20.604;2023-04-16T16:26:03;4.18;;;3.67;;
43990;SDS011;29654;50.784;20.604;2023-04-16T16:31:05;3.58;;;3.28;;
43990;SDS011;29654;50.784;20.604;2023-04-16T16:36:09;3.67;;;3.38;;
43990;SDS011;29654;50.784;20.604;2023-04-16T16:41:12;3.47;;;3.17;;
43990;SDS011;29654;50.784;20.604;2023-04-16T16:46:15;3.35;;;3.05;;
43990;SDS011;29654;50.784;20.604;2023-04-16T16:51:19;2.85;;;2.65;;
43990;SDS011;29654;50.784;20.604;2023-04-16T16:56:21;2.78;;;2.53;;
43990;SDS011;29654;50.784;20.604;2023-04-16T17:01:24;3.47;;;3.17;;
43990;SDS011;29654;50.784;20.604;2023-04-16T17:06:28;3.10;;;2.90;;
43990;SDS011;29654;50.784;20.604;2023-04-16T17:11:32;3.10;;;2.88;;
43990;SDS011;29654;50.784;20.604;2023-04-16T17:16:34;3.00;;;2.80;;
43990;SDS011;29654;50.784;20.604;2023-04-16T17:21:38;3.05;;;2.83;;
43990;SDS011;29654;50.784;20.604;2023-04-16T17:26:40;3.42;;;3.15;;
43990;SDS011;29654;50.784;20.604;2023-04-16T17:31:43;3.80;;;3.05;;
43990;SDS011;29654;50.784;20.604;2023-04-16T17:36:47;3.17;;;2.97;;
43990;SDS011;29654;50.784;20.604;2023-04-16T17:41:50;3.72;;;3.42;;
43990;SDS011;29654;50.784;20.604;2023-04-16T17:46:56;4.03;;;3.08;;
43990;SDS011;29654;50.784;20.604;2023-04-16T17:52:00;3.22;;;2.92;;
43990;SDS011;29654;50.784;20.604;2023-04-16T17:57:03;2.90;;;2.65;;
43990;SDS011;29654;50.784;20.604;2023-04-16T18:02:05;4.05;;;3.50;;
43990;SDS011;29654;50.784;20.604;2023-04-16T18:07:09;6.80;;;6.15;;
43990;SDS011;29654;50.784;20.604;2023-04-16T18:12:12;7.88;;;7.07;;
43990;SDS011;29654;50.784;20.604;2023-04-16T18:17:15;8.05;;;7.25;;
43990;SDS011;29654;50.784;20.604;2023-04-16T18:22:19;7.18;;;6.55;;
43990;SDS011;29654;50.784;20.604;2023-04-16T18:27:22;8.82;;;7.93;;
43990;SDS011;29654;50.784;20.604;2023-04-16T18:32:24;10.80;;;9.70;;
43990;SDS011;29654;50.784;20.604;2023-04-16T18:37:28;9.60;;;8.68;;
43990;SDS011;29654;50.784;20.604;2023-04-16T18:42:31;12.20;;;10.52;;
43990;SDS011;29654;50.784;20.604;2023-04-16T18:47:33;10.88;;;9.77;;
43990;SDS011;29654;50.784;20.604;2023-04-16T18:52:37;10.65;;;8.65;;
43990;SDS011;29654;50.784;20.604;2023-04-16T18:57:40;11.90;;;10.68;;
43990;SDS011;29654;50.784;20.604;2023-04-16T19:02:43;13.27;;;11.45;;
43990;SDS011;29654;50.784;20.604;2023-04-16T19:07:47;12.23;;;10.52;;
43990;SDS011;29654;50.784;20.604;2023-04-16T19:12:49;16.13;;;12.75;;
43990;SDS011;29654;50.784;20.604;2023-04-16T19:17:52;12.57;;;11.27;;
43990;SDS011;29654;50.784;20.604;2023-04-16T19:22:56;13.23;;;10.55;;
43990;SDS011;29654;50.784;20.604;2023-04-16T19:27:58;18.20;;;15.48;;
43990;SDS011;29654;50.784;20.604;2023-04-16T19:33:01;14.70;;;12.50;;
43990;SDS011;29654;50.784;20.604;2023-04-16T19:38:04;15.48;;;13.38;;
43990;SDS011;29654;50.784;20.604;2023-04-16T19:43:07;11.48;;;9.85;;
43990;SDS011;29654;50.784;20.604;2023-04-16T19:48:10;13.43;;;11.02;;
43990;SDS011;29654;50.784;20.604;2023-04-16T19:53:14;11.75;;;10.55;;
43990;SDS011;29654;50.784;20.604;2023-04-16T19:58:17;12.10;;;10.70;;
43990;SDS011;29654;50.784;20.604;2023-04-16T20:03:19;11.73;;;10.63;;
43990;SDS011;29654;50.784;20.604;2023-04-16T20:08:23;11.35;;;10.25;;
43990;SDS011;29654;50.784;20.604;2023-04-16T20:13:26;9.07;;;8.25;;
43990;SDS011;29654;50.784;20.604;2023-04-16T20:18:28;10.27;;;9.23;;
43990;SDS011;29654;50.784;20.604;2023-04-16T20:23:32;10.48;;;9.45;;
43990;SDS011;29654;50.784;20.604;2023-04-16T20:28:35;9.65;;;8.75;;
43990;SDS011;29654;50.784;20.604;2023-04-16T20:33:37;10.45;;;9.45;;
43990;SDS011;29654;50.784;20.604;2023-04-16T20:38:41;11.52;;;10.32;;
43990;SDS011;29654;50.784;20.604;2023-04-16T20:43:44;11.35;;;10.25;;
43990;SDS011;29654;50.784;20.604;2023-04-16T20:48:49;10.75;;;9.65;;
43990;SDS011;29654;50.784;20.604;2023-04-16T20:53:53;10.32;;;9.32;;
43990;SDS011;29654;50.784;20.604;2023-04-16T20:58:56;8.85;;;8.05;;
43990;SDS011;29654;50.784;20.604;2023-04-16T21:03:59;10.60;;;9.45;;
43990;SDS011;29654;50.784;20.604;2023-04-16T21:09:04;10.15;;;9.25;;
43990;SDS011;29654;50.784;20.604;2023-04-16T21:14:06;10.02;;;9.10;;
43990;SDS011;29654;50.784;20.604;2023-04-16T21:19:09;10.50;;;9.07;;
43990;SDS011;29654;50.784;20.604;2023-04-16T21:24:13;10.82;;;9.73;;
43990;SDS011;29654;50.784;20.604;2023-04-16T21:29:15;11.10;;;10.00;;
43990;SDS011;29654;50.784;20.604;2023-04-16T21:34:18;10.60;;;9.50;;
43990;SDS011;29654;50.784;20.604;2023-04-16T21:39:22;11.45;;;10.35;;
43990;SDS011;29654;50.784;20.604;2023-04-16T21:44:29;10.38;;;9.07;;
43990;SDS011;29654;50.784;20.604;2023-04-16T21:49:32;9.23;;;8.38;;
43990;SDS011;29654;50.784;20.604;2023-04-16T21:54:36;10.95;;;9.48;;
43990;SDS011;29654;50.784;20.604;2023-04-16T21:59:39;8.82;;;8.00;;
43990;SDS011;29654;50.784;20.604;2023-04-16T22:04:42;10.23;;;9.10;;
43990;SDS011;29654;50.784;20.604;2023-04-16T22:09:46;10.10;;;9.13;;
43990;SDS011;29654;50.784;20.604;2023-04-16T22:14:48;11.13;;;9.95;;
43990;SDS011;29654;50.784;20.604;2023-04-16T22:19:51;11.23;;;10.18;;
43990;SDS011;29654;50.784;20.604;2023-04-16T22:24:55;9.38;;;8.48;;
43990;SDS011;29654;50.784;20.604;2023-04-16T22:29:58;10.05;;;8.98;;
43990;SDS011;29654;50.784;20.604;2023-04-16T22:35:00;10.73;;;9.30;;
43990;SDS011;29654;50.784;20.604;2023-04-16T22:40:05;10.57;;;9.48;;
43990;SDS011;29654;50.784;20.604;2023-04-16T22:45:10;10.57;;;9.55;;
43990;SDS011;29654;50.784;20.604;2023-04-16T22:50:13;10.07;;;9.18;;
43990;SDS011;29654;50.784;20.604;2023-04-16T22:55:17;9.88;;;8.98;;
43990;SDS011;29654;50.784;20.604;2023-04-16T23:00:19;9.63;;;8.70;;
43990;SDS011;29654;50.784;20.604;2023-04-16T23:05:24;10.02;;;9.00;;
43990;SDS011;29654;50.784;20.604;2023-04-16T23:10:28;9.55;;;8.70;;
43990;SDS011;29654;50.784;20.604;2023-04-16T23:15:30;10.40;;;9.35;;
43990;SDS011;29654;50.784;20.604;2023-04-16T23:20:33;8.75;;;7.85;;
43990;SDS011;29654;50.784;20.604;2023-04-16T23:25:37;10.95;;;9.20;;
43990;SDS011;29654;50.784;20.604;2023-04-16T23:30:41;10.65;;;9.65;;
43990;SDS011;29654;50.784;20.604;2023-04-16T23:35:45;11.25;;;10.05;;
43990;SDS011;29654;50.784;20.604;2023-04-16T23:40:49;11.13;;;10.02;;
43990;SDS011;29654;50.784;20.604;2023-04-16T23:45:51;10.77;;;9.77;;
43990;SDS011;29654;50.784;20.604;2023-04-16T23:50:54;10.63;;;9.63;;
43990;SDS011;29654;50.784;20.604;2023-04-16T23:55:57;11.93;;;10.65;;
